sensor_id;sensor_type;location;lat;lon;timestamp;temperature;humidity
8067;DHT22;4076;48.076;9.118;2023-08-07T00:00:21;11.00;99.90
8067;DHT22;4076;48.076;9.118;2023-08-07T00:02:47;11.10;99.90
8067;DHT22;4076;48.076;9.118;2023-08-07T00:05:13;11.00;99.90
8067;DHT22;4076;48.076;9.118;2023-08-07T00:07:39;11.10;99.90
8067;DHT22;4076;48.076;9.118;2023-08-07T00:10:05;11.10;99.90
8067;DHT22;4076;48.076;9.118;2023-08-07T00:12:30;11.10;99.90
8067;DHT22;4076;48.076;9.118;2023-08-07T00:14:56;11.10;99.90
8067;DHT22;4076;48.076;9.118;2023-08-07T00:17:22;11.10;99.90
8067;DHT22;4076;48.076;9.118;2023-08-07T00:19:47;11.10;99.90
8067;DHT22;4076;48.076;9.118;2023-08-07T00:22:13;11.00;99.90
8067;DHT22;4076;48.076;9.118;2023-08-07T00:24:38;11.10;99.90
8067;DHT22;4076;48.076;9.118;2023-08-07T00:27:04;11.00;99.90
8067;DHT22;4076;48.076;9.118;2023-08-07T00:29:30;11.00;99.90
8067;DHT22;4076;48.076;9.118;2023-08-07T00:31:55;11.00;99.90
8067;DHT22;4076;48.076;9.118;2023-08-07T00:34:21;11.00;99.90
8067;DHT22;4076;48.076;9.118;2023-08-07T00:36:46;11.00;99.90
8067;DHT22;4076;48.076;9.118;2023-08-07T00:39:12;11.00;99.90
8067;DHT22;4076;48.076;9.118;2023-08-07T00:41:38;11.00;99.90
8067;DHT22;4076;48.076;9.118;2023-08-07T00:44:03;10.90;99.90
8067;DHT22;4076;48.076;9.118;2023-08-07T00:46:29;10.90;99.90
8067;DHT22;4076;48.076;9.118;2023-08-07T00:48:55;10.90;99.90
8067;DHT22;4076;48.076;9.118;2023-08-07T00:51:23;10.90;99.90
8067;DHT22;4076;48.076;9.118;2023-08-07T00:53:48;10.80;99.90
8067;DHT22;4076;48.076;9.118;2023-08-07T00:56:14;10.80;99.90
8067;DHT22;4076;48.076;9.118;2023-08-07T00:58:40;10.80;99.90
8067;DHT22;4076;48.076;9.118;2023-08-07T01:01:07;10.80;99.90
8067;DHT22;4076;48.076;9.118;2023-08-07T01:03:33;10.80;99.90
8067;DHT22;4076;48.076;9.118;2023-08-07T01:05:58;10.80;99.90
8067;DHT22;4076;48.076;9.118;2023-08-07T01:08:24;10.90;99.90
8067;DHT22;4076;48.076;9.118;2023-08-07T01:11:30;10.90;99.90
8067;DHT22;4076;48.076;9.118;2023-08-07T01:16:34;10.90;99.90
8067;DHT22;4076;48.076;9.118;2023-08-07T01:19:01;10.90;99.90
8067;DHT22;4076;48.076;9.118;2023-08-07T01:21:28;10.90;99.90
8067;DHT22;4076;48.076;9.118;2023-08-07T01:23:54;10.90;99.90
8067;DHT22;4076;48.076;9.118;2023-08-07T01:26:20;10.90;99.90
8067;DHT22;4076;48.076;9.118;2023-08-07T01:28:58;10.90;99.90
8067;DHT22;4076;48.076;9.118;2023-08-07T01:31:29;10.90;99.90
8067;DHT22;4076;48.076;9.118;2023-08-07T01:34:02;10.90;99.90
8067;DHT22;4076;48.076;9.118;2023-08-07T01:36:29;10.90;99.90
8067;DHT22;4076;48.076;9.118;2023-08-07T01:38:59;10.90;99.90
8067;DHT22;4076;48.076;9.118;2023-08-07T01:41:26;10.80;99.90
8067;DHT22;4076;48.076;9.118;2023-08-07T01:43:52;10.80;99.90
8067;DHT22;4076;48.076;9.118;2023-08-07T01:46:18;10.90;99.90
8067;DHT22;4076;48.076;9.118;2023-08-07T01:48:44;10.80;99.90
8067;DHT22;4076;48.076;9.118;2023-08-07T01:51:10;10.80;99.90
8067;DHT22;4076;48.076;9.118;2023-08-07T01:53:35;10.90;99.90
8067;DHT22;4076;48.076;9.118;2023-08-07T01:56:01;10.80;99.90
8067;DHT22;4076;48.076;9.118;2023-08-07T01:58:26;10.90;99.90
8067;DHT22;4076;48.076;9.118;2023-08-07T02:00:53;10.90;99.90
8067;DHT22;4076;48.076;9.118;2023-08-07T02:03:19;10.90;99.90
8067;DHT22;4076;48.076;9.118;2023-08-07T02:05:46;11.00;99.90
8067;DHT22;4076;48.076;9.118;2023-08-07T02:08:12;11.00;99.90
8067;DHT22;4076;48.076;9.118;2023-08-07T02:10:37;11.00;99.90
8067;DHT22;4076;48.076;9.118;2023-08-07T02:13:03;11.00;99.90
8067;DHT22;4076;48.076;9.118;2023-08-07T02:15:28;11.00;99.90
8067;DHT22;4076;48.076;9.118;2023-08-07T02:17:54;10.90;99.90
8067;DHT22;4076;48.076;9.118;2023-08-07T02:20:20;10.90;99.90
8067;DHT22;4076;48.076;9.118;2023-08-07T02:22:45;10.90;99.90
8067;DHT22;4076;48.076;9.118;2023-08-07T02:25:11;10.90;99.90
8067;DHT22;4076;48.076;9.118;2023-08-07T02:27:36;10.90;99.90
8067;DHT22;4076;48.076;9.118;2023-08-07T02:30:02;10.80;99.90
8067;DHT22;4076;48.076;9.118;2023-08-07T02:32:29;10.90;99.90
8067;DHT22;4076;48.076;9.118;2023-08-07T02:34:55;10.90;99.90
8067;DHT22;4076;48.076;9.118;2023-08-07T02:37:21;10.80;99.90
8067;DHT22;4076;48.076;9.118;2023-08-07T02:39:46;10.80;99.90
8067;DHT22;4076;48.076;9.118;2023-08-07T02:42:12;10.80;99.90
8067;DHT22;4076;48.076;9.118;2023-08-07T02:44:37;10.70;99.90
8067;DHT22;4076;48.076;9.118;2023-08-07T02:47:03;10.70;99.90
8067;DHT22;4076;48.076;9.118;2023-08-07T02:49:29;10.60;99.90
8067;DHT22;4076;48.076;9.118;2023-08-07T02:51:55;10.60;99.90
8067;DHT22;4076;48.076;9.118;2023-08-07T02:54:20;10.60;99.90
8067;DHT22;4076;48.076;9.118;2023-08-07T02:56:46;10.50;99.90
8067;DHT22;4076;48.076;9.118;2023-08-07T02:59:14;10.50;99.90
8067;DHT22;4076;48.076;9.118;2023-08-07T03:01:39;10.40;99.90
8067;DHT22;4076;48.076;9.118;2023-08-07T03:04:05;10.40;99.90
8067;DHT22;4076;48.076;9.118;2023-08-07T03:06:30;10.40;99.90
8067;DHT22;4076;48.076;9.118;2023-08-07T03:08:56;10.30;99.90
8067;DHT22;4076;48.076;9.118;2023-08-07T03:11:21;10.30;99.90
8067;DHT22;4076;48.076;9.118;2023-08-07T03:13:47;10.30;99.90
8067;DHT22;4076;48.076;9.118;2023-08-07T03:16:14;10.30;99.90
8067;DHT22;4076;48.076;9.118;2023-08-07T03:18:40;10.30;99.90
8067;DHT22;4076;48.076;9.118;2023-08-07T03:21:06;10.30;99.90
8067;DHT22;4076;48.076;9.118;2023-08-07T03:23:31;10.30;99.90
8067;DHT22;4076;48.076;9.118;2023-08-07T03:26:07;10.30;99.90
8067;DHT22;4076;48.076;9.118;2023-08-07T03:28:34;10.30;99.90
8067;DHT22;4076;48.076;9.118;2023-08-07T03:31:00;10.30;99.90
8067;DHT22;4076;48.076;9.118;2023-08-07T03:33:26;10.30;99.90
8067;DHT22;4076;48.076;9.118;2023-08-07T03:35:51;10.30;99.90
8067;DHT22;4076;48.076;9.118;2023-08-07T03:38:18;10.40;99.90
8067;DHT22;4076;48.076;9.118;2023-08-07T03:40:43;10.30;99.90
8067;DHT22;4076;48.076;9.118;2023-08-07T03:43:09;10.30;99.90
8067;DHT22;4076;48.076;9.118;2023-08-07T03:45:35;10.30;99.90
8067;DHT22;4076;48.076;9.118;2023-08-07T03:48:00;10.30;99.90
8067;DHT22;4076;48.076;9.118;2023-08-07T03:50:26;10.30;99.90
8067;DHT22;4076;48.076;9.118;2023-08-07T03:52:52;10.30;99.90
8067;DHT22;4076;48.076;9.118;2023-08-07T03:55:17;10.30;99.90
8067;DHT22;4076;48.076;9.118;2023-08-07T03:57:43;10.30;99.90
8067;DHT22;4076;48.076;9.118;2023-08-07T04:00:09;10.30;99.90
8067;DHT22;4076;48.076;9.118;2023-08-07T04:02:35;10.30;99.90
8067;DHT22;4076;48.076;9.118;2023-08-07T04:05:00;10.20;99.90
8067;DHT22;4076;48.076;9.118;2023-08-07T04:07:26;10.20;99.90
8067;DHT22;4076;48.076;9.118;2023-08-07T04:09:52;10.20;99.90
8067;DHT22;4076;48.076;9.118;2023-08-07T04:12:17;10.10;99.90
8067;DHT22;4076;48.076;9.118;2023-08-07T04:14:43;10.10;99.90
8067;DHT22;4076;48.076;9.118;2023-08-07T04:17:08;10.10;99.90
8067;DHT22;4076;48.076;9.118;2023-08-07T04:19:34;10.00;99.90
8067;DHT22;4076;48.076;9.118;2023-08-07T04:21:59;10.00;99.90
8067;DHT22;4076;48.076;9.118;2023-08-07T04:24:25;10.10;99.90
8067;DHT22;4076;48.076;9.118;2023-08-07T04:26:51;10.00;99.90
8067;DHT22;4076;48.076;9.118;2023-08-07T04:29:16;10.00;99.90
8067;DHT22;4076;48.076;9.118;2023-08-07T04:31:42;10.00;99.90
8067;DHT22;4076;48.076;9.118;2023-08-07T04:34:08;10.00;99.90
8067;DHT22;4076;48.076;9.118;2023-08-07T04:36:34;10.00;99.90
8067;DHT22;4076;48.076;9.118;2023-08-07T04:38:59;10.00;99.90
8067;DHT22;4076;48.076;9.118;2023-08-07T04:41:25;9.90;99.90
8067;DHT22;4076;48.076;9.118;2023-08-07T04:43:51;9.90;99.90
8067;DHT22;4076;48.076;9.118;2023-08-07T04:46:16;9.90;99.90
8067;DHT22;4076;48.076;9.118;2023-08-07T04:48:42;9.90;99.90
8067;DHT22;4076;48.076;9.118;2023-08-07T04:51:07;9.90;99.90
8067;DHT22;4076;48.076;9.118;2023-08-07T04:53:33;9.90;99.90
8067;DHT22;4076;48.076;9.118;2023-08-07T04:55:59;9.90;99.90
8067;DHT22;4076;48.076;9.118;2023-08-07T04:58:25;9.90;99.90
8067;DHT22;4076;48.076;9.118;2023-08-07T05:00:55;10.00;99.90
8067;DHT22;4076;48.076;9.118;2023-08-07T05:03:21;10.30;99.90
8067;DHT22;4076;48.076;9.118;2023-08-07T05:05:46;10.60;99.90
8067;DHT22;4076;48.076;9.118;2023-08-07T05:08:12;11.00;99.90
8067;DHT22;4076;48.076;9.118;2023-08-07T05:10:37;11.30;99.90
8067;DHT22;4076;48.076;9.118;2023-08-07T05:13:03;11.50;99.90
8067;DHT22;4076;48.076;9.118;2023-08-07T05:15:29;11.70;99.90
8067;DHT22;4076;48.076;9.118;2023-08-07T05:17:56;11.90;99.90
8067;DHT22;4076;48.076;9.118;2023-08-07T05:20:21;11.90;99.90
8067;DHT22;4076;48.076;9.118;2023-08-07T05:22:47;12.10;99.90
8067;DHT22;4076;48.076;9.118;2023-08-07T05:25:13;12.10;99.90
8067;DHT22;4076;48.076;9.118;2023-08-07T05:27:45;12.20;99.90
8067;DHT22;4076;48.076;9.118;2023-08-07T05:30:12;12.30;99.90
8067;DHT22;4076;48.076;9.118;2023-08-07T05:32:37;12.40;99.90
8067;DHT22;4076;48.076;9.118;2023-08-07T05:35:07;12.50;99.90
8067;DHT22;4076;48.076;9.118;2023-08-07T05:37:34;12.50;99.90
8067;DHT22;4076;48.076;9.118;2023-08-07T05:40:00;12.50;99.90
8067;DHT22;4076;48.076;9.118;2023-08-07T05:42:26;12.60;99.90
8067;DHT22;4076;48.076;9.118;2023-08-07T05:44:52;12.50;99.90
8067;DHT22;4076;48.076;9.118;2023-08-07T05:47:17;12.40;99.90
8067;DHT22;4076;48.076;9.118;2023-08-07T05:49:43;12.30;99.90
8067;DHT22;4076;48.076;9.118;2023-08-07T05:52:08;12.20;99.90
8067;DHT22;4076;48.076;9.118;2023-08-07T05:54:34;12.00;99.90
8067;DHT22;4076;48.076;9.118;2023-08-07T05:57:00;11.90;99.90
8067;DHT22;4076;48.076;9.118;2023-08-07T05:59:26;11.80;99.90
8067;DHT22;4076;48.076;9.118;2023-08-07T06:01:52;11.70;99.90
8067;DHT22;4076;48.076;9.118;2023-08-07T06:04:18;11.70;99.90
8067;DHT22;4076;48.076;9.118;2023-08-07T06:06:44;11.80;99.90
8067;DHT22;4076;48.076;9.118;2023-08-07T06:09:11;11.80;99.90
8067;DHT22;4076;48.076;9.118;2023-08-07T06:11:36;11.90;99.90
8067;DHT22;4076;48.076;9.118;2023-08-07T06:14:02;11.80;99.90
8067;DHT22;4076;48.076;9.118;2023-08-07T06:16:27;11.70;99.90
8067;DHT22;4076;48.076;9.118;2023-08-07T06:18:53;11.70;99.90
8067;DHT22;4076;48.076;9.118;2023-08-07T06:21:19;11.80;99.90
8067;DHT22;4076;48.076;9.118;2023-08-07T06:23:46;11.90;99.90
8067;DHT22;4076;48.076;9.118;2023-08-07T06:26:12;12.10;99.90
8067;DHT22;4076;48.076;9.118;2023-08-07T06:28:38;12.40;99.90
8067;DHT22;4076;48.076;9.118;2023-08-07T06:31:08;12.70;99.90
8067;DHT22;4076;48.076;9.118;2023-08-07T06:33:35;13.00;99.90
8067;DHT22;4076;48.076;9.118;2023-08-07T06:36:01;13.30;99.90
8067;DHT22;4076;48.076;9.118;2023-08-07T06:38:27;13.50;99.90
8067;DHT22;4076;48.076;9.118;2023-08-07T06:40:53;13.70;99.90
8067;DHT22;4076;48.076;9.118;2023-08-07T06:43:18;13.80;99.90
8067;DHT22;4076;48.076;9.118;2023-08-07T06:45:47;14.00;99.90
8067;DHT22;4076;48.076;9.118;2023-08-07T06:48:12;14.20;99.90
8067;DHT22;4076;48.076;9.118;2023-08-07T06:50:38;14.40;99.90
8067;DHT22;4076;48.076;9.118;2023-08-07T06:53:03;14.70;99.90
8067;DHT22;4076;48.076;9.118;2023-08-07T06:55:29;14.90;99.90
8067;DHT22;4076;48.076;9.118;2023-08-07T06:57:54;15.10;99.90
8067;DHT22;4076;48.076;9.118;2023-08-07T07:00:20;15.30;99.90
8067;DHT22;4076;48.076;9.118;2023-08-07T07:02:46;15.50;99.90
8067;DHT22;4076;48.076;9.118;2023-08-07T07:05:11;15.60;99.90
8067;DHT22;4076;48.076;9.118;2023-08-07T07:07:37;15.70;99.90
8067;DHT22;4076;48.076;9.118;2023-08-07T07:10:03;15.80;99.90
8067;DHT22;4076;48.076;9.118;2023-08-07T07:12:29;16.00;99.90
8067;DHT22;4076;48.076;9.118;2023-08-07T07:14:54;16.20;99.90
8067;DHT22;4076;48.076;9.118;2023-08-07T07:17:20;16.40;99.90
8067;DHT22;4076;48.076;9.118;2023-08-07T07:19:46;16.40;99.90
8067;DHT22;4076;48.076;9.118;2023-08-07T07:22:11;16.70;99.90
8067;DHT22;4076;48.076;9.118;2023-08-07T07:24:38;17.10;99.90
8067;DHT22;4076;48.076;9.118;2023-08-07T07:27:03;17.20;99.90
8067;DHT22;4076;48.076;9.118;2023-08-07T07:29:29;17.30;99.90
8067;DHT22;4076;48.076;9.118;2023-08-07T07:31:55;17.40;99.00
8067;DHT22;4076;48.076;9.118;2023-08-07T07:34:21;17.50;98.70
8067;DHT22;4076;48.076;9.118;2023-08-07T07:36:46;17.60;98.40
8067;DHT22;4076;48.076;9.118;2023-08-07T07:39:12;17.90;97.10
8067;DHT22;4076;48.076;9.118;2023-08-07T07:41:37;18.20;95.00
8067;DHT22;4076;48.076;9.118;2023-08-07T07:44:03;18.60;94.00
8067;DHT22;4076;48.076;9.118;2023-08-07T07:46:28;18.80;91.40
8067;DHT22;4076;48.076;9.118;2023-08-07T07:48:55;18.90;89.70
8067;DHT22;4076;48.076;9.118;2023-08-07T07:51:21;18.80;87.10
8067;DHT22;4076;48.076;9.118;2023-08-07T07:53:47;18.60;86.40
8067;DHT22;4076;48.076;9.118;2023-08-07T07:56:13;18.30;84.90
8067;DHT22;4076;48.076;9.118;2023-08-07T07:58:38;17.90;83.00
8067;DHT22;4076;48.076;9.118;2023-08-07T08:01:06;17.50;83.70
8067;DHT22;4076;48.076;9.118;2023-08-07T08:03:32;17.20;83.50
8067;DHT22;4076;48.076;9.118;2023-08-07T08:05:57;16.80;85.80
8067;DHT22;4076;48.076;9.118;2023-08-07T08:08:23;16.40;89.40
8067;DHT22;4076;48.076;9.118;2023-08-07T08:10:49;16.10;90.10
8067;DHT22;4076;48.076;9.118;2023-08-07T08:13:16;15.70;92.50
8067;DHT22;4076;48.076;9.118;2023-08-07T08:15:42;15.50;93.10
8067;DHT22;4076;48.076;9.118;2023-08-07T08:18:08;15.30;94.50
8067;DHT22;4076;48.076;9.118;2023-08-07T08:20:34;15.10;96.60
8067;DHT22;4076;48.076;9.118;2023-08-07T08:22:59;15.00;97.50
8067;DHT22;4076;48.076;9.118;2023-08-07T08:25:25;15.10;98.30
8067;DHT22;4076;48.076;9.118;2023-08-07T08:27:50;15.10;97.80
8067;DHT22;4076;48.076;9.118;2023-08-07T08:30:16;15.40;99.90
8067;DHT22;4076;48.076;9.118;2023-08-07T08:32:43;16.50;99.90
8067;DHT22;4076;48.076;9.118;2023-08-07T08:35:09;19.20;99.90
8067;DHT22;4076;48.076;9.118;2023-08-07T08:37:34;21.90;94.20
8067;DHT22;4076;48.076;9.118;2023-08-07T08:40:00;23.40;80.40
8067;DHT22;4076;48.076;9.118;2023-08-07T08:42:26;24.30;70.40
8067;DHT22;4076;48.076;9.118;2023-08-07T08:44:54;25.60;60.40
8067;DHT22;4076;48.076;9.118;2023-08-07T08:47:27;25.60;57.30
8067;DHT22;4076;48.076;9.118;2023-08-07T08:50:01;24.40;56.10
8067;DHT22;4076;48.076;9.118;2023-08-07T08:52:31;23.00;56.80
8067;DHT22;4076;48.076;9.118;2023-08-07T08:54:58;21.70;57.80
8067;DHT22;4076;48.076;9.118;2023-08-07T08:57:27;20.50;58.40
8067;DHT22;4076;48.076;9.118;2023-08-07T08:59:53;19.60;60.50
8067;DHT22;4076;48.076;9.118;2023-08-07T09:02:20;20.10;66.60
8067;DHT22;4076;48.076;9.118;2023-08-07T09:04:45;22.40;66.80
8067;DHT22;4076;48.076;9.118;2023-08-07T09:07:14;23.10;60.30
8067;DHT22;4076;48.076;9.118;2023-08-07T09:09:40;22.80;58.30
8067;DHT22;4076;48.076;9.118;2023-08-07T09:12:08;22.10;57.80
8067;DHT22;4076;48.076;9.118;2023-08-07T09:14:40;22.10;59.10
8067;DHT22;4076;48.076;9.118;2023-08-07T09:17:07;22.00;58.70
8067;DHT22;4076;48.076;9.118;2023-08-07T09:19:33;21.90;58.40
8067;DHT22;4076;48.076;9.118;2023-08-07T09:21:58;22.90;59.40
8067;DHT22;4076;48.076;9.118;2023-08-07T09:24:24;25.40;57.40
8067;DHT22;4076;48.076;9.118;2023-08-07T09:26:51;25.90;52.10
8067;DHT22;4076;48.076;9.118;2023-08-07T09:29:20;25.70;51.40
8067;DHT22;4076;48.076;9.118;2023-08-07T09:31:45;27.60;48.90
8067;DHT22;4076;48.076;9.118;2023-08-07T09:34:11;29.40;45.90
8067;DHT22;4076;48.076;9.118;2023-08-07T09:36:39;30.90;41.10
8067;DHT22;4076;48.076;9.118;2023-08-07T09:39:04;30.70;41.10
8067;DHT22;4076;48.076;9.118;2023-08-07T09:41:30;30.00;40.50
8067;DHT22;4076;48.076;9.118;2023-08-07T09:43:56;28.70;40.50
8067;DHT22;4076;48.076;9.118;2023-08-07T09:46:23;27.20;41.00
8067;DHT22;4076;48.076;9.118;2023-08-07T09:48:50;25.40;43.30
8067;DHT22;4076;48.076;9.118;2023-08-07T09:51:16;24.00;44.30
8067;DHT22;4076;48.076;9.118;2023-08-07T09:53:41;23.00;45.60
8067;DHT22;4076;48.076;9.118;2023-08-07T09:56:07;22.00;46.90
8067;DHT22;4076;48.076;9.118;2023-08-07T09:58:33;21.10;49.90
8067;DHT22;4076;48.076;9.118;2023-08-07T10:01:00;20.60;51.70
8067;DHT22;4076;48.076;9.118;2023-08-07T10:03:26;20.70;52.20
8067;DHT22;4076;48.076;9.118;2023-08-07T10:05:52;20.40;51.60
8067;DHT22;4076;48.076;9.118;2023-08-07T10:08:18;20.20;52.20
8067;DHT22;4076;48.076;9.118;2023-08-07T10:10:44;20.20;53.30
8067;DHT22;4076;48.076;9.118;2023-08-07T10:13:13;20.70;54.20
8067;DHT22;4076;48.076;9.118;2023-08-07T10:15:39;21.20;53.20
8067;DHT22;4076;48.076;9.118;2023-08-07T10:18:07;21.70;52.70
8067;DHT22;4076;48.076;9.118;2023-08-07T10:20:33;21.80;52.60
8067;DHT22;4076;48.076;9.118;2023-08-07T10:23:07;21.90;52.60
8067;DHT22;4076;48.076;9.118;2023-08-07T10:25:35;22.30;53.30
8067;DHT22;4076;48.076;9.118;2023-08-07T10:28:03;22.60;52.20
8067;DHT22;4076;48.076;9.118;2023-08-07T10:30:31;22.50;51.00
8067;DHT22;4076;48.076;9.118;2023-08-07T10:32:58;22.00;50.60
8067;DHT22;4076;48.076;9.118;2023-08-07T10:35:31;21.70;50.80
8067;DHT22;4076;48.076;9.118;2023-08-07T10:38:08;21.70;51.30
8067;DHT22;4076;48.076;9.118;2023-08-07T10:40:39;21.70;51.50
8067;DHT22;4076;48.076;9.118;2023-08-07T10:43:20;21.60;50.60
8067;DHT22;4076;48.076;9.118;2023-08-07T10:45:45;21.50;51.10
8067;DHT22;4076;48.076;9.118;2023-08-07T10:48:12;21.50;49.80
8067;DHT22;4076;48.076;9.118;2023-08-07T10:53:34;21.10;50.20
8067;DHT22;4076;48.076;9.118;2023-08-07T10:56:17;21.00;50.20
8067;DHT22;4076;48.076;9.118;2023-08-07T10:58:49;20.80;50.10
8067;DHT22;4076;48.076;9.118;2023-08-07T11:03:59;20.00;50.20
8067;DHT22;4076;48.076;9.118;2023-08-07T11:06:27;19.60;51.20
8067;DHT22;4076;48.076;9.118;2023-08-07T11:08:53;19.80;52.90
8067;DHT22;4076;48.076;9.118;2023-08-07T11:11:19;19.90;52.80
8067;DHT22;4076;48.076;9.118;2023-08-07T11:13:45;20.10;52.70
8067;DHT22;4076;48.076;9.118;2023-08-07T11:16:11;20.30;52.60
8067;DHT22;4076;48.076;9.118;2023-08-07T11:18:38;20.30;52.30
8067;DHT22;4076;48.076;9.118;2023-08-07T11:21:07;20.30;50.90
8067;DHT22;4076;48.076;9.118;2023-08-07T11:23:33;20.30;51.60
8067;DHT22;4076;48.076;9.118;2023-08-07T11:26:01;20.40;51.90
8067;DHT22;4076;48.076;9.118;2023-08-07T11:28:28;20.70;52.10
8067;DHT22;4076;48.076;9.118;2023-08-07T11:30:54;20.80;52.50
8067;DHT22;4076;48.076;9.118;2023-08-07T11:33:21;20.90;51.40
8067;DHT22;4076;48.076;9.118;2023-08-07T11:35:48;20.50;52.00
8067;DHT22;4076;48.076;9.118;2023-08-07T11:38:36;20.00;53.10
8067;DHT22;4076;48.076;9.118;2023-08-07T11:41:04;19.60;55.00
8067;DHT22;4076;48.076;9.118;2023-08-07T11:43:32;19.60;55.30
8067;DHT22;4076;48.076;9.118;2023-08-07T11:45:59;19.60;56.60
8067;DHT22;4076;48.076;9.118;2023-08-07T11:48:26;19.80;57.40
8067;DHT22;4076;48.076;9.118;2023-08-07T11:50:53;20.00;56.00
8067;DHT22;4076;48.076;9.118;2023-08-07T11:53:20;20.00;55.60
8067;DHT22;4076;48.076;9.118;2023-08-07T11:55:47;19.90;55.40
8067;DHT22;4076;48.076;9.118;2023-08-07T11:58:13;19.70;55.60
8067;DHT22;4076;48.076;9.118;2023-08-07T12:00:43;19.60;55.50
8067;DHT22;4076;48.076;9.118;2023-08-07T12:03:29;19.50;55.30
8067;DHT22;4076;48.076;9.118;2023-08-07T12:05:56;19.30;54.20
8067;DHT22;4076;48.076;9.118;2023-08-07T12:08:22;19.30;55.30
8067;DHT22;4076;48.076;9.118;2023-08-07T12:10:53;19.50;55.50
8067;DHT22;4076;48.076;9.118;2023-08-07T12:13:23;19.90;55.00
8067;DHT22;4076;48.076;9.118;2023-08-07T12:15:51;20.00;52.60
8067;DHT22;4076;48.076;9.118;2023-08-07T12:18:21;20.00;52.10
8067;DHT22;4076;48.076;9.118;2023-08-07T12:20:52;20.00;52.30
8067;DHT22;4076;48.076;9.118;2023-08-07T12:23:20;19.90;51.90
8067;DHT22;4076;48.076;9.118;2023-08-07T12:25:46;19.90;51.30
8067;DHT22;4076;48.076;9.118;2023-08-07T12:28:12;19.90;50.80
8067;DHT22;4076;48.076;9.118;2023-08-07T12:30:38;20.00;51.30
8067;DHT22;4076;48.076;9.118;2023-08-07T12:33:04;20.00;50.90
8067;DHT22;4076;48.076;9.118;2023-08-07T12:35:34;20.00;51.30
8067;DHT22;4076;48.076;9.118;2023-08-07T12:38:00;20.00;51.00
8067;DHT22;4076;48.076;9.118;2023-08-07T12:40:28;20.00;50.80
8067;DHT22;4076;48.076;9.118;2023-08-07T12:42:54;20.10;50.70
8067;DHT22;4076;48.076;9.118;2023-08-07T12:45:19;20.20;50.20
8067;DHT22;4076;48.076;9.118;2023-08-07T12:47:45;20.30;50.10
8067;DHT22;4076;48.076;9.118;2023-08-07T12:50:12;20.30;49.70
8067;DHT22;4076;48.076;9.118;2023-08-07T12:52:38;20.40;50.00
8067;DHT22;4076;48.076;9.118;2023-08-07T12:55:03;20.50;49.80
8067;DHT22;4076;48.076;9.118;2023-08-07T12:57:31;20.60;50.30
8067;DHT22;4076;48.076;9.118;2023-08-07T12:59:56;20.80;49.30
8067;DHT22;4076;48.076;9.118;2023-08-07T13:02:22;20.90;48.50
8067;DHT22;4076;48.076;9.118;2023-08-07T13:04:47;20.80;48.70
8067;DHT22;4076;48.076;9.118;2023-08-07T13:07:13;20.90;49.20
8067;DHT22;4076;48.076;9.118;2023-08-07T13:09:39;21.00;50.20
8067;DHT22;4076;48.076;9.118;2023-08-07T13:12:04;21.20;49.50
8067;DHT22;4076;48.076;9.118;2023-08-07T13:14:30;21.40;49.00
8067;DHT22;4076;48.076;9.118;2023-08-07T13:16:56;21.50;49.20
8067;DHT22;4076;48.076;9.118;2023-08-07T13:19:21;21.70;48.20
8067;DHT22;4076;48.076;9.118;2023-08-07T13:21:47;21.80;48.10
8067;DHT22;4076;48.076;9.118;2023-08-07T13:24:13;21.80;47.80
8067;DHT22;4076;48.076;9.118;2023-08-07T13:26:38;21.70;47.50
8067;DHT22;4076;48.076;9.118;2023-08-07T13:29:13;21.40;46.80
8067;DHT22;4076;48.076;9.118;2023-08-07T13:31:40;21.00;47.60
8067;DHT22;4076;48.076;9.118;2023-08-07T13:34:12;20.70;47.10
8067;DHT22;4076;48.076;9.118;2023-08-07T13:36:38;20.50;47.50
8067;DHT22;4076;48.076;9.118;2023-08-07T13:39:06;20.50;47.80
8067;DHT22;4076;48.076;9.118;2023-08-07T13:41:32;20.60;47.60
8067;DHT22;4076;48.076;9.118;2023-08-07T13:43:58;20.70;47.40
8067;DHT22;4076;48.076;9.118;2023-08-07T13:46:24;20.90;47.10
8067;DHT22;4076;48.076;9.118;2023-08-07T13:48:50;21.00;47.20
8067;DHT22;4076;48.076;9.118;2023-08-07T13:51:16;20.90;46.40
8067;DHT22;4076;48.076;9.118;2023-08-07T13:53:43;20.80;46.10
8067;DHT22;4076;48.076;9.118;2023-08-07T13:56:08;20.70;46.80
8067;DHT22;4076;48.076;9.118;2023-08-07T13:58:36;20.70;47.00
8067;DHT22;4076;48.076;9.118;2023-08-07T14:01:02;20.60;46.20
8067;DHT22;4076;48.076;9.118;2023-08-07T14:03:30;20.40;46.70
8067;DHT22;4076;48.076;9.118;2023-08-07T14:05:55;20.20;46.60
8067;DHT22;4076;48.076;9.118;2023-08-07T14:08:21;20.10;47.30
8067;DHT22;4076;48.076;9.118;2023-08-07T14:10:47;20.10;47.30
8067;DHT22;4076;48.076;9.118;2023-08-07T14:13:12;20.00;47.30
8067;DHT22;4076;48.076;9.118;2023-08-07T14:15:38;19.90;48.20
8067;DHT22;4076;48.076;9.118;2023-08-07T14:18:03;19.70;47.80
8067;DHT22;4076;48.076;9.118;2023-08-07T14:20:29;19.60;48.50
8067;DHT22;4076;48.076;9.118;2023-08-07T14:22:55;19.60;48.90
8067;DHT22;4076;48.076;9.118;2023-08-07T14:25:20;19.70;49.30
8067;DHT22;4076;48.076;9.118;2023-08-07T14:27:47;19.80;48.50
8067;DHT22;4076;48.076;9.118;2023-08-07T14:30:13;20.00;48.80
8067;DHT22;4076;48.076;9.118;2023-08-07T14:32:39;20.20;48.80
8067;DHT22;4076;48.076;9.118;2023-08-07T14:35:05;20.40;48.20
8067;DHT22;4076;48.076;9.118;2023-08-07T14:37:31;20.30;48.10
8067;DHT22;4076;48.076;9.118;2023-08-07T14:39:56;20.20;47.20
8067;DHT22;4076;48.076;9.118;2023-08-07T14:42:23;19.80;47.90
8067;DHT22;4076;48.076;9.118;2023-08-07T14:44:49;19.60;48.10
8067;DHT22;4076;48.076;9.118;2023-08-07T14:47:14;19.40;48.80
8067;DHT22;4076;48.076;9.118;2023-08-07T14:49:40;19.30;48.70
8067;DHT22;4076;48.076;9.118;2023-08-07T14:52:06;19.20;49.60
8067;DHT22;4076;48.076;9.118;2023-08-07T14:54:32;19.10;49.30
8067;DHT22;4076;48.076;9.118;2023-08-07T14:56:58;19.10;49.40
8067;DHT22;4076;48.076;9.118;2023-08-07T14:59:25;19.20;49.70
8067;DHT22;4076;48.076;9.118;2023-08-07T15:01:50;19.30;49.60
8067;DHT22;4076;48.076;9.118;2023-08-07T15:04:16;19.50;49.70
8067;DHT22;4076;48.076;9.118;2023-08-07T15:06:42;19.50;49.60
8067;DHT22;4076;48.076;9.118;2023-08-07T15:09:08;19.60;49.20
8067;DHT22;4076;48.076;9.118;2023-08-07T15:11:34;19.60;49.00
8067;DHT22;4076;48.076;9.118;2023-08-07T15:14:00;19.60;49.60
8067;DHT22;4076;48.076;9.118;2023-08-07T15:16:27;19.50;49.60
8067;DHT22;4076;48.076;9.118;2023-08-07T15:18:52;19.50;49.90
8067;DHT22;4076;48.076;9.118;2023-08-07T15:21:18;19.50;50.40
8067;DHT22;4076;48.076;9.118;2023-08-07T15:23:44;19.60;50.00
8067;DHT22;4076;48.076;9.118;2023-08-07T15:26:10;19.70;50.40
8067;DHT22;4076;48.076;9.118;2023-08-07T15:28:35;19.80;50.30
8067;DHT22;4076;48.076;9.118;2023-08-07T15:31:01;19.80;50.40
8067;DHT22;4076;48.076;9.118;2023-08-07T15:33:26;19.90;51.40
8067;DHT22;4076;48.076;9.118;2023-08-07T15:35:55;19.90;51.00
8067;DHT22;4076;48.076;9.118;2023-08-07T15:38:21;19.90;50.10
8067;DHT22;4076;48.076;9.118;2023-08-07T15:40:47;19.90;50.90
8067;DHT22;4076;48.076;9.118;2023-08-07T15:43:13;19.80;49.90
8067;DHT22;4076;48.076;9.118;2023-08-07T15:45:38;19.60;50.30
8067;DHT22;4076;48.076;9.118;2023-08-07T15:48:05;19.50;50.50
8067;DHT22;4076;48.076;9.118;2023-08-07T15:50:30;19.40;50.70
8067;DHT22;4076;48.076;9.118;2023-08-07T15:53:01;19.30;50.90
8067;DHT22;4076;48.076;9.118;2023-08-07T15:55:26;19.30;50.60
8067;DHT22;4076;48.076;9.118;2023-08-07T15:57:52;19.30;49.90
8067;DHT22;4076;48.076;9.118;2023-08-07T16:00:18;19.20;50.20
8067;DHT22;4076;48.076;9.118;2023-08-07T16:02:43;19.20;50.00
8067;DHT22;4076;48.076;9.118;2023-08-07T16:05:09;19.10;50.60